Aviation Digital Data Service (ADDS)

Output produced by METARs form (0252 UTC 06 July 2015)
found at http://aviationweather.gov/adds/metars/
 
KDFW 052326Z 0600/0706 17015KT P6SM FEW060 SCT300 
     FM061000 18015KT P6SM BKN015 
     FM061500 18018KT P6SM BKN025 
     FM061700 18018G28KT P6SM SCT040 
     FM070100 18017KT P6SM SCT060